Terminal Aerodrome Forecast
Issued by NWS

Home | Current Version | Previous Version | Text Only | Print | Product List | Glossary On
Versions: 1 2 3 4 5 6 7 8 9 10 11 12 13 14
000
FTUS42 KILM 120520
TAFCRE
TAF
KCRE 120520Z 1206/1306 23005KT P6SM SKC
     FM120900 23005KT P6SM SKC WS015/24030KT
     FM121500 24011G18KT P6SM SKC
     FM122100 30010G20KT P6SM SCT080=

USA.gov is the U.S. government's official web portal to all federal, state and local government web resources and services.